Time;durP1;ratioP1;P1;durP2;ratioP2;P2;SDS_P1;SDS_P2;PMS_P1;PMS_P2;Temp;Humidity;BMP_temperature;BMP_pressure;BME280_temperature;BME280_humidity;BME280_pressure;Samples;Min_cycle;Max_cycle;Signal;HPM_P1;HPM_P2
2023/06/30 00:06:11;;;;;;;16.25;8.88;;;;;;;21.66;64.86;100736.31;15798867;28;20036;-60
2023/06/30 00:13:47;;;;;;;13.25;9.38;;;;;;;21.75;65.00;100734.59;15797794;28;20092;-59
2023/06/30 00:21:20;;;;;;;10.68;8.15;;;;;;;21.67;65.31;100734.41;15780065;28;20035;-59
2023/06/30 00:28:54;;;;;;;16.20;9.50;;;;;;;21.77;64.91;100732.41;15797879;28;20032;-59
2023/06/30 00:36:28;;;;;;;13.85;10.63;;;;;;;21.25;66.61;100730.25;15762612;28;20135;-60
2023/06/30 00:44:03;;;;;;;17.50;11.95;;;;;;;20.86;68.87;100728.28;15782139;28;20072;-57
2023/06/30 00:51:37;;;;;;;21.73;15.50;;;;;;;20.92;68.71;100726.34;15762328;28;20158;-57
2023/06/30 00:59:12;;;;;;;31.08;17.08;;;;;;;20.79;69.59;100711.38;15762293;28;20036;-59
2023/06/30 01:06:59;;;;;;;20.00;14.30;;;;;;;20.76;70.25;100710.03;15778000;28;20036;-61
2023/06/30 01:14:35;;;;;;;21.13;13.98;;;;;;;20.10;72.76;100710.19;15778473;28;20459;-57
2023/06/30 01:22:17;;;;;;;20.25;14.88;;;;;;;20.08;72.48;100707.72;15778702;28;20044;-59
2023/06/30 01:29:52;;;;;;;25.80;16.27;;;;;;;20.24;72.19;100704.97;15793474;28;20044;-60
2023/06/30 01:37:27;;;;;;;21.02;16.30;;;;;;;20.29;71.44;100692.16;15790053;28;20093;-61
2023/06/30 01:45:08;;;;;;;21.52;17.23;;;;;;;20.39;71.72;100700.31;15807282;28;20055;-61
2023/06/30 01:52:41;;;;;;;24.67;17.75;;;;;;;20.39;72.07;100683.94;15789637;28;20040;-60
2023/06/30 02:00:16;;;;;;;25.48;17.45;;;;;;;20.64;70.69;100688.53;15784598;28;20056;-61
2023/06/30 02:07:48;;;;;;;25.80;17.02;;;;;;;20.39;72.27;100692.13;15785175;28;20221;-58
2023/06/30 02:15:23;;;;;;;25.75;17.65;;;;;;;20.46;71.14;100686.38;15788558;28;20051;-57
2023/06/30 02:22:56;;;;;;;26.00;18.00;;;;;;;20.11;71.48;100690.00;15772746;28;20048;-58
2023/06/30 02:30:31;;;;;;;29.70;20.90;;;;;;;20.26;71.59;100687.25;15793535;28;20113;-60
2023/06/30 02:38:05;;;;;;;26.05;18.65;;;;;;;20.28;72.07;100674.13;15803583;28;20128;-57
2023/06/30 02:45:39;;;;;;;23.73;17.85;;;;;;;20.03;71.91;100657.84;15788050;28;20467;-57
2023/06/30 02:53:12;;;;;;;27.05;17.63;;;;;;;19.82;73.29;100662.53;15772522;28;20048;-57
2023/06/30 03:00:46;;;;;;;24.45;17.85;;;;;;;19.81;74.09;100661.69;15777818;28;20528;-57
2023/06/30 03:08:20;;;;;;;37.03;20.85;;;;;;;19.96;73.84;100660.03;15772783;28;20562;-60
2023/06/30 03:15:57;;;;;;;28.70;18.67;;;;;;;20.11;73.21;100654.59;15783875;28;20455;-59
2023/06/30 03:23:33;;;;;;;28.70;19.15;;;;;;;20.18;73.14;100649.63;15784082;28;20058;-56
2023/06/30 03:31:07;;;;;;;28.13;18.55;;;;;;;20.17;73.32;100649.94;15789191;28;20044;-54
2023/06/30 03:38:40;;;;;;;27.30;18.58;;;;;;;20.00;73.98;100647.50;15820284;22;20044;-79
2023/06/30 03:46:15;;;;;;;27.92;20.85;;;;;;;20.17;73.72;100644.47;15815617;28;20036;-81
2023/06/30 03:53:51;;;;;;;32.42;20.33;;;;;;;20.03;74.68;100634.16;15813305;28;20070;-81
2023/06/30 04:01:26;;;;;;;;;;;;;;;20.38;73.07;100633.25;15794443;28;20048;-82
2023/06/30 04:08:59;;;;;;;71.32;24.25;;;;;;;20.50;72.67;100643.03;15792424;28;19920;-80
2023/06/30 04:16:33;;;;;;;29.58;21.63;;;;;;;20.17;73.68;100619.94;15826760;28;20077;-80
2023/06/30 04:24:07;;;;;;;31.20;21.65;;;;;;;20.31;74.36;100640.88;15796879;28;20052;-82
2023/06/30 04:31:41;;;;;;;32.40;23.08;;;;;;;20.33;74.54;100605.16;15783246;28;20058;-81
2023/06/30 04:39:14;;;;;;;32.70;21.83;;;;;;;20.62;73.50;100616.28;15774866;28;20506;-82
2023/06/30 04:46:48;;;;;;;31.75;22.40;;;;;;;20.10;75.45;100618.34;15803296;28;20038;-82
2023/06/30 04:54:22;;;;;;;28.98;21.08;;;;;;;20.44;74.06;100614.94;15791191;28;20044;-82
2023/06/30 05:01:56;;;;;;;29.73;21.25;;;;;;;20.85;72.66;100601.97;15802626;28;20028;-81
2023/06/30 05:09:29;;;;;;;30.77;21.42;;;;;;;20.81;74.03;100603.63;15832410;28;20339;-80
2023/06/30 05:17:05;;;;;;;32.65;20.92;;;;;;;21.07;71.41;100584.34;15821361;28;20565;-82
2023/06/30 05:24:38;;;;;;;28.77;20.00;;;;;;;21.10;71.59;100573.69;15817485;28;20548;-81
2023/06/30 05:32:12;;;;;;;28.35;20.02;;;;;;;20.97;72.92;100540.75;15808149;28;20048;-82
2023/06/30 05:39:45;;;;;;;27.70;20.80;;;;;;;21.49;73.13;100586.47;15801607;28;20071;-80
2023/06/30 05:47:19;;;;;;;26.05;18.92;;;;;;;21.67;72.54;100595.88;15809185;28;20040;-79
2023/06/30 05:54:52;;;;;;;25.85;18.50;;;;;;;21.41;71.59;100587.13;15857488;28;20064;-83
2023/06/30 06:02:26;;;;;;;23.92;18.40;;;;;;;21.93;70.61;100610.13;15799311;28;20063;-83
2023/06/30 06:10:00;;;;;;;26.50;19.13;;;;;;;21.82;70.64;100584.81;15812459;28;20064;-81
2023/06/30 06:17:33;;;;;;;;;;;;;;;22.11;69.78;100603.09;15828384;28;20127;-81
2023/06/30 06:25:08;;;;;;;23.67;16.25;;;;;;;20.89;72.44;100594.03;15837982;28;19931;-81
2023/06/30 06:32:42;;;;;;;21.45;16.48;;;;;;;21.77;70.48;100603.16;15805729;28;20046;-81
2023/06/30 06:40:15;;;;;;;23.08;16.33;;;;;;;21.40;71.29;100612.78;15774756;28;20093;-81
2023/06/30 06:48:22;;;;;;;22.35;16.33;;;;;;;21.33;70.96;100612.31;15798538;28;20245;-80
2023/06/30 06:55:57;;;;;;;22.98;17.05;;;;;;;21.69;70.50;100617.47;15785904;28;20139;-80
2023/06/30 07:03:32;;;;;;;23.30;16.33;;;;;;;21.67;69.51;100636.88;15845059;28;20128;-80
2023/06/30 07:11:06;;;;;;;25.48;16.55;;;;;;;21.55;69.21;100615.41;15789805;28;20138;-82
2023/06/30 07:18:40;;;;;;;23.25;16.35;;;;;;;21.28;70.18;100590.47;15804912;28;20044;-81
2023/06/30 07:26:13;;;;;;;28.80;16.75;;;;;;;21.56;69.02;100589.72;15793481;28;20443;-81
2023/06/30 07:33:47;;;;;;;27.77;17.92;;;;;;;21.71;67.98;100602.41;15837703;28;20116;-80
2023/06/30 07:41:20;;;;;;;24.15;15.98;;;;;;;21.72;69.66;100612.22;15838287;28;20035;-81
2023/06/30 07:48:57;;;;;;;23.85;15.15;;;;;;;21.87;66.77;100583.97;15831541;28;20430;-82
2023/06/30 07:56:30;;;;;;;23.52;16.48;;;;;;;21.34;67.45;100524.63;15809107;28;20065;-82
2023/06/30 08:04:06;;;;;;;22.65;16.13;;;;;;;22.11;67.40;100630.44;15863893;28;20055;-80
2023/06/30 08:11:39;;;;;;;24.85;16.48;;;;;;;22.64;66.88;100606.56;15840605;28;20122;-81
2023/06/30 08:19:14;;;;;;;23.75;16.23;;;;;;;22.55;65.85;100615.72;15822041;28;20048;-81
2023/06/30 08:26:47;;;;;;;25.42;17.17;;;;;;;22.76;65.09;100597.13;15838243;28;20281;-81
2023/06/30 08:34:25;;;;;;;26.25;17.42;;;;;;;22.56;64.99;100576.31;15842318;28;20044;-81
2023/06/30 08:42:03;;;;;;;26.45;18.15;;;;;;;23.05;63.84;100633.41;15859864;28;20051;-80
2023/06/30 08:49:39;;;;;;;24.88;17.83;;;;;;;22.56;64.62;100593.53;15846833;28;20115;-80
2023/06/30 08:57:15;;;;;;;23.42;17.67;;;;;;;22.91;64.82;100627.84;15833401;28;20078;-81
2023/06/30 09:04:52;;;;;;;31.40;21.05;;;;;;;22.67;64.91;100635.28;15809966;28;20055;-81
2023/06/30 09:12:27;;;;;;;32.38;22.42;;;;;;;22.60;64.89;100629.34;15800779;28;20068;-82
2023/06/30 09:20:01;;;;;;;35.08;22.52;;;;;;;22.33;65.53;100633.47;15836379;28;20458;-82
2023/06/30 09:27:37;;;;;;;33.22;22.88;;;;;;;22.07;66.14;100604.78;15838971;28;20410;-81
2023/06/30 09:35:16;;;;;;;31.02;22.25;;;;;;;22.63;65.98;100620.56;15804411;28;20108;-81
2023/06/30 09:42:54;;;;;;;29.00;21.08;;;;;;;22.27;65.51;100538.13;15806463;28;20055;-82
2023/06/30 09:50:31;;;;;;;32.20;22.02;;;;;;;22.92;63.27;100613.03;15840875;28;20044;-82
2023/06/30 09:58:04;;;;;;;32.28;22.27;;;;;;;22.88;64.55;100622.94;15858326;28;20068;-81
2023/06/30 10:05:40;;;;;;;35.38;23.10;;;;;;;22.53;64.80;100598.81;15831280;28;20504;-82
2023/06/30 10:13:16;;;;;;;36.30;25.35;;;;;;;21.37;68.83;100564.22;15811265;28;20056;-82
2023/06/30 10:20:50;;;;;;;39.25;26.50;;;;;;;22.00;69.91;100629.72;15827082;28;20046;-82
2023/06/30 10:28:23;;;;;;;39.50;26.80;;;;;;;22.02;70.03;100582.97;15813013;28;20043;-82
2023/06/30 10:35:59;;;;;;;35.17;25.83;;;;;;;22.14;69.88;100610.72;15790923;28;20135;-83
2023/06/30 10:44:10;;;;;;;31.75;23.33;;;;;;;22.05;70.46;100621.44;15832957;28;20059;-82
2023/06/30 10:51:48;;;;;;;29.25;20.60;;;;;;;21.93;68.79;100625.72;15805142;28;20149;-81
2023/06/30 10:59:23;;;;;;;29.58;18.80;;;;;;;21.66;69.01;100602.47;15821117;28;20036;-82
2023/06/30 11:07:05;;;;;;;27.05;18.60;;;;;;;21.60;66.26;100623.56;15819018;28;20040;-82
2023/06/30 11:14:42;;;;;;;28.60;19.75;;;;;;;21.38;67.46;100607.63;15812907;28;20043;-81
2023/06/30 11:22:26;;;;;;;29.02;19.40;;;;;;;21.58;67.05;100625.72;15799536;28;20111;-79
2023/06/30 11:30:00;;;;;;;26.50;18.17;;;;;;;21.02;68.97;100631.59;15816952;28;20036;-80
2023/06/30 11:37:36;;;;;;;26.42;18.55;;;;;;;20.75;70.05;100631.19;15803852;28;20067;-82
2023/06/30 11:45:10;;;;;;;27.95;20.42;;;;;;;21.03;69.84;100635.97;15789042;28;20040;-80
2023/06/30 11:52:45;;;;;;;32.30;21.60;;;;;;;21.09;71.86;100620.38;15799836;28;20070;-81
2023/06/30 12:00:21;;;;;;;32.65;22.83;;;;;;;20.89;72.09;100594.03;15828849;28;20070;-81
2023/06/30 12:08:07;;;;;;;31.80;22.08;;;;;;;21.21;71.08;100620.00;15835751;28;20062;-82
2023/06/30 12:15:40;;;;;;;33.15;22.50;;;;;;;21.20;71.75;100613.72;15823387;28;20047;-81
2023/06/30 12:23:14;;;;;;;14.32;10.77;;;;;;;20.41;73.02;100620.94;15792418;28;20044;-80
2023/06/30 12:30:47;;;;;;;10.85;7.78;;;;;;;19.80;73.14;100626.56;15803409;28;20052;-79
2023/06/30 12:38:21;;;;;;;9.85;6.70;;;;;;;19.55;73.72;100603.69;15807473;28;20135;-81
2023/06/30 12:45:54;;;;;;;8.82;7.15;;;;;;;20.21;73.83;100621.84;15803321;28;20123;-81
2023/06/30 12:53:31;;;;;;;10.07;7.63;;;;;;;20.16;72.58;100623.78;15767847;28;20039;-80
2023/06/30 13:01:05;;;;;;;11.55;8.48;;;;;;;19.69;72.43;100567.75;15796177;28;20470;-82
2023/06/30 13:08:40;;;;;;;11.90;8.90;;;;;;;20.38;71.76;100632.44;15775323;28;20040;-82
2023/06/30 13:16:12;;;;;;;15.60;10.00;;;;;;;19.81;72.76;100582.69;15779234;28;20035;-81
2023/06/30 13:23:47;;;;;;;14.85;10.32;;;;;;;20.07;72.19;100648.03;15837260;28;20039;-83
2023/06/30 13:31:20;;;;;;;14.60;10.13;;;;;;;19.34;71.30;100509.50;15807809;28;20048;-82
2023/06/30 13:38:54;;;;;;;13.38;9.95;;;;;;;20.31;71.96;100626.44;15789589;28;20040;-82
2023/06/30 13:46:27;;;;;;;16.55;10.18;;;;;;;20.72;71.74;100631.78;15834197;28;20116;-82
2023/06/30 13:54:02;;;;;;;12.95;8.75;;;;;;;20.63;71.48;100629.63;15836036;28;20508;-82
2023/06/30 14:01:36;;;;;;;11.13;8.07;;;;;;;20.69;71.18;100630.41;15834627;28;20044;-82
2023/06/30 14:09:11;;;;;;;9.23;7.32;;;;;;;20.63;69.88;100594.16;15822043;28;20097;-81
2023/06/30 14:16:44;;;;;;;9.95;6.25;;;;;;;20.32;69.31;100614.44;15837035;28;20056;-81
2023/06/30 14:24:19;;;;;;;6.47;4.82;;;;;;;20.12;69.22;100607.16;15809699;28;20044;-83
2023/06/30 14:31:51;;;;;;;10.18;5.05;;;;;;;20.22;69.65;100609.03;15843207;28;20278;-84
2023/06/30 14:39:25;;;;;;;;;;;;;;;20.59;69.73;100611.38;15833453;28;20029;-83
2023/06/30 14:47:00;;;;;;;8.07;4.65;;;;;;;20.85;68.53;100601.97;15830929;28;19990;-81
2023/06/30 14:54:34;;;;;;;9.35;4.63;;;;;;;20.85;68.01;100592.97;15823123;28;20058;-83
2023/06/30 15:02:07;;;;;;;8.75;4.57;;;;;;;21.01;67.09;100612.78;15805319;28;20048;-82
2023/06/30 15:09:42;;;;;;;6.60;3.97;;;;;;;20.65;67.39;100577.50;15817793;28;20035;-84
2023/06/30 15:17:15;;;;;;;5.57;3.58;;;;;;;21.01;67.12;100616.31;15836956;28;20066;-84
2023/06/30 15:24:50;;;;;;;6.57;3.30;;;;;;;21.03;66.01;100575.09;15838581;28;20051;-85
2023/06/30 15:32:24;;;;;;;5.93;3.45;;;;;;;21.14;66.43;100596.56;15804031;28;20127;-82
2023/06/30 15:39:58;;;;;;;4.32;2.95;;;;;;;20.99;66.32;100565.88;15765916;28;20044;-83
2023/06/30 15:47:31;;;;;;;37.03;4.07;;;;;;;21.18;65.65;100591.38;15794777;22;20054;-59
2023/06/30 15:55:11;;;;;;;27.65;3.33;;;;;;;20.77;66.54;100596.28;15769096;28;20536;-60
2023/06/30 16:02:44;;;;;;;5.57;3.10;;;;;;;20.58;67.30;100596.91;15795602;22;20086;-58
2023/06/30 16:10:18;;;;;;;10.18;3.30;;;;;;;19.91;69.29;100600.94;15781327;28;20135;-54
2023/06/30 16:17:51;;;;;;;4.65;2.90;;;;;;;19.67;69.49;100618.94;15763744;28;20504;-55
2023/06/30 16:25:26;;;;;;;3.75;2.72;;;;;;;20.07;68.57;100612.63;15781646;28;20044;-57
2023/06/30 16:32:58;;;;;;;4.40;2.33;;;;;;;19.80;69.68;100608.31;15781140;28;20192;-58
2023/06/30 16:40:33;;;;;;;4.28;2.65;;;;;;;19.44;70.61;100609.38;15797946;28;20071;-55
2023/06/30 16:48:06;;;;;;;3.72;2.58;;;;;;;19.59;69.60;100603.97;15796411;28;20044;-54
2023/06/30 16:55:40;;;;;;;5.53;2.70;;;;;;;19.86;69.02;100566.38;15796697;28;20052;-58
2023/06/30 17:03:13;;;;;;;3.90;2.83;;;;;;;20.08;68.59;100593.25;15797236;28;20040;-58
2023/06/30 17:10:47;;;;;;;5.05;2.90;;;;;;;19.67;67.56;100583.53;15762201;28;20493;-58
2023/06/30 17:18:20;;;;;;;5.47;2.38;;;;;;;19.34;68.40;100578.34;15761873;28;20439;-58
2023/06/30 17:25:54;;;;;;;;;;;;;;;19.79;67.22;100582.16;15778603;28;20130;-59
2023/06/30 17:33:26;;;;;;;7.32;2.88;;;;;;;19.75;67.38;100591.16;15796729;28;19926;-59
2023/06/30 17:41:01;;;;;;;5.03;2.80;;;;;;;20.07;66.61;100582.66;15778916;28;20044;-59
2023/06/30 17:48:34;;;;;;;5.15;3.00;;;;;;;19.44;67.88;100574.00;15778218;28;20071;-53
2023/06/30 17:56:09;;;;;;;6.30;2.80;;;;;;;20.29;66.33;100572.22;15762000;28;20055;-58
2023/06/30 18:03:41;;;;;;;3.75;2.90;;;;;;;20.16;65.90;100575.53;15777532;28;20295;-57
2023/06/30 18:11:15;;;;;;;5.90;3.15;;;;;;;20.39;64.77;100582.25;15801665;28;20044;-56
2023/06/30 18:18:48;;;;;;;6.30;2.72;;;;;;;20.19;64.65;100585.03;15805492;28;20516;-50
2023/06/30 18:26:22;;;;;;;5.60;2.65;;;;;;;20.14;65.07;100596.78;15804418;28;20055;-52
2023/06/30 18:33:55;;;;;;;25.00;3.35;;;;;;;20.16;65.53;100594.63;15805229;28;20033;-56
2023/06/30 18:41:29;;;;;;;6.97;3.00;;;;;;;20.03;66.39;100593.28;15804151;28;20097;-53
2023/06/30 18:49:02;;;;;;;6.13;2.53;;;;;;;19.57;67.67;100598.78;15803818;28;20071;-53
2023/06/30 18:56:37;;;;;;;6.13;2.58;;;;;;;20.04;65.97;100603.06;15802938;28;20063;-53
2023/06/30 19:04:12;;;;;;;7.20;3.22;;;;;;;19.95;66.29;100607.47;15801936;28;20044;-56
2023/06/30 19:11:52;;;;;;;6.43;3.28;;;;;;;19.76;66.87;100620.84;15768606;28;20500;-51
2023/06/30 19:19:30;;;;;;;7.70;4.07;;;;;;;19.82;66.49;100616.22;15803054;28;20066;-51
2023/06/30 19:27:05;;;;;;;8.10;3.95;;;;;;;20.03;66.00;100614.25;15802065;28;20044;-53
2023/06/30 19:34:38;;;;;;;6.35;4.22;;;;;;;19.94;66.72;100616.72;15790874;28;20047;-52
2023/06/30 19:42:12;;;;;;;34.53;11.95;;;;;;;19.79;67.27;100608.59;15781851;28;20470;-56
2023/06/30 19:49:45;;;;;;;5.55;4.03;;;;;;;19.70;68.29;100616.50;15800124;28;20496;-49
2023/06/30 19:57:19;;;;;;;5.55;3.67;;;;;;;19.63;67.88;100613.22;15795971;28;20517;-52
2023/06/30 20:04:52;;;;;;;4.63;3.22;;;;;;;19.63;68.03;100599.59;15799655;28;20052;-50
2023/06/30 20:12:26;;;;;;;4.95;3.08;;;;;;;19.57;68.38;100593.31;15798532;28;20040;-52
2023/06/30 20:19:59;;;;;;;4.00;3.13;;;;;;;19.36;69.33;100600.69;15779650;28;20032;-51
2023/06/30 20:27:34;;;;;;;5.75;3.65;;;;;;;19.53;68.96;100603.13;15798140;28;20071;-52
2023/06/30 20:35:08;;;;;;;4.78;3.28;;;;;;;19.69;67.46;100600.44;15797392;28;20108;-50
2023/06/30 20:42:42;;;;;;;7.95;3.72;;;;;;;19.72;67.59;100605.31;15797609;28;20139;-54
2023/06/30 20:50:15;;;;;;;6.68;3.92;;;;;;;19.47;68.72;100604.22;15772434;28;20101;-52
2023/06/30 20:57:50;;;;;;;7.05;3.67;;;;;;;19.51;67.48;100597.16;15793079;28;20097;-52
2023/06/30 21:05:23;;;;;;;8.05;4.10;;;;;;;18.69;71.24;100607.09;15761229;28;20490;-52
2023/06/30 21:12:59;;;;;;;9.77;4.03;;;;;;;18.51;72.48;100596.69;15778656;28;20048;-54
2023/06/30 21:20:33;;;;;;;8.18;3.67;;;;;;;18.73;71.56;100597.31;15796065;28;20037;-50
2023/06/30 21:28:08;;;;;;;468.45;224.10;;;;;;;18.94;70.74;100594.66;15796101;28;20044;-50
2023/06/30 21:35:40;;;;;;;7.38;4.57;;;;;;;19.00;70.48;100596.31;15796424;28;20113;-52
2023/06/30 21:43:18;;;;;;;11.15;10.10;;;;;;;19.28;69.33;100584.91;15798861;28;20050;-51
2023/06/30 21:50:52;;;;;;;184.75;12.13;;;;;;;18.73;71.29;100589.16;15789487;28;20040;-50
2023/06/30 21:58:26;;;;;;;7.05;5.05;;;;;;;18.84;71.37;100574.53;15807061;28;20105;-54
2023/06/30 22:06:00;;;;;;;7.55;4.65;;;;;;;19.08;70.38;100574.81;15849825;22;20039;-72
2023/06/30 22:13:36;;;;;;;6.85;5.10;;;;;;;18.96;71.03;100584.31;15868144;28;20038;-73
2023/06/30 22:21:10;;;;;;;10.40;5.55;;;;;;;19.27;69.87;100566.94;15867875;28;20048;-73
2023/06/30 22:28:44;;;;;;;;;;;;;;;19.34;69.29;100564.75;15867496;28;20048;-75
2023/06/30 22:36:17;;;;;;;8.88;5.57;;;;;;;19.31;69.55;100557.16;15853429;28;19919;-72
2023/06/30 22:43:51;;;;;;;7.78;5.55;;;;;;;19.21;70.39;100554.44;15862205;27;20127;-74
2023/06/30 22:51:28;;;;;;;6.93;5.78;;;;;;;19.32;70.53;100549.81;15867063;28;20093;-73
2023/06/30 22:59:02;;;;;;;8.63;6.50;;;;;;;19.06;70.16;100541.63;15848032;28;20058;-73
2023/06/30 23:06:35;;;;;;;8.35;6.47;;;;;;;19.16;69.84;100532.66;15864864;28;20047;-72
2023/06/30 23:14:09;;;;;;;8.30;5.53;;;;;;;19.05;70.24;100542.72;15864445;28;20043;-73
2023/06/30 23:21:43;;;;;;;7.60;6.30;;;;;;;18.52;72.43;100538.53;15845510;28;20579;-74
2023/06/30 23:29:21;;;;;;;8.43;6.60;;;;;;;18.71;71.68;100536.97;15863683;28;20035;-73
2023/06/30 23:36:54;;;;;;;9.05;6.85;;;;;;;18.85;71.08;100535.38;15844555;28;20047;-74
2023/06/30 23:44:28;;;;;;;;;;;;;;;18.72;71.30;100533.16;15845965;28;20036;-73
2023/06/30 23:52:01;;;;;;;9.20;7.32;;;;;;;18.41;72.21;100529.50;15862424;28;19949;-73
2023/06/30 23:59:35;;;;;;;8.88;7.47;;;;;;;18.79;71.10;100522.84;15861926;28;20039;-74
